Bradenton, FL (34209)

7:39 PM EDT en Octubre 31, 2014 (GMT -0400)
KFLPALME10 | Change Station
CLOSE
Current Station
Estación meteorológica personal
Location: Palmetto, FL
Altura: 3 ft
Estaciones meteorológicas cercanas

Alt 3 ft 27.53 °N, 82.60 °W | Updated 9 minutes ago

Despejado
Despejado
70.5 ° F
Sensación térmica 75 ° F
N
8.3
Viento Variable Viento desde NNO

Hoy
Alta -- | Baja -- ° F
--% Posibilidad de precipitaciones
Ayer
Alta -- | Baja -- ° F
Precip. -- pul
7:40 AM 6:47 PM
Cuarto creciente, 60% visible
Presión 29.86 pul
Visibilidad 10.0 Millas
Nubes Despejado
Índice de calor 75 ° F
Punto de rocío 58 ° F
Humedad 64%
Precipitaciones 0.00 pul
Espesor de la nieve No disponible.
UV 0 de una escala de 12
Polen 4.90 de una escala de 12
Calidad del aire No disponible.
Flu Activity No disponible.
METAR KSRQ 312253Z AUTO 33007KT 10SM CLR 20/11 A2986 RMK AO2 SLP112 T02000106

More Conditions Fewer Conditions

Presión 29.86 pul
Visibilidad 10.0 Millas
Nubes Despejado
Índice de calor 75 ° F
Punto de rocío 58 ° F
Humedad 64%
Precipitaciones 0.00 pul
Espesor de la nieve No disponible.
UV 0 de una escala de 12
Polen 4.90 de una escala de 12
Calidad del aire No disponible.
Flu Activity No disponible.
METAR KSRQ 312253Z AUTO 33007KT 10SM CLR 20/11 A2986 RMK AO2 SLP112 T02000106

More Conditions Fewer Conditions

10-Day Weather Forecast

Almanac

Astronomía

Oct. 31, 2014 Salida Puesta
Hora real
Crepúsculo civil
Crepúsculo náutico
Crepúsculo astronómico
Luna
Horas de luz
Horas de luz
Tomorrow will be .
, % of the Moon is Illuminated

Extremos de hoy

Máximos del estado Bajos del estado

Community

WunderPhotos

Upload Photos

1,766,784 ¡fotos cargadas!

WunderBlogs® & News

Nearby

Calidad del aire

  Calidad del aire Índice AQ Contaminante
Not available.

Grosos de nieve

Estación Profundido Altura

Actividad de terremotos

Ciudad Distance Mag. Tiempo y dato
Magnitud mínima muestra es 2,5.

Temperaturas de aguas costeras

Lugar Temperatura

Estaciones meteorológicas cercanas